Conception, Missouri
Current Conditions -  °F | °C
As of 12:53 PM on Thursday 30 Oct 2014 (Local Time) from KSTJ Reporting Station
Clear Clear  
Wind Chill: 18°   Ceiling: Unl
Heat Index: 18°   Visibility: 10mi
Dew Point:   Wind: 14mph
Humidity: 39%   Direction: 340°NNW
Pressure: 30.03"   Gusts: 29mph
Location:  40.24°N, 94.69°W
Report Text: KSTJ 301753Z 34012G25KT 10SM CLR 18/04 A3003 RMK AO2 SLP169 T01830039 10183 20056 53000
Loading
Personal Weather Stations






























Interactive Weather Map
Tropical Storm Tracking
New forecast layout! Learn more

10-Day Weather Forecast

Advertisements
Track Severe Weather on mobile